Proctor, Pennsylvania
Current Conditions -  °F | °C
As of 3:11 AM on Thursday 27 Nov 2014 (Local Time) from KIPT Reporting Station
Overcast Overcast  
Wind Chill: 26°   Ceiling: 5000
Heat Index: 32°   Visibility: 10mi
Dew Point: 28°   Wind: 6mph
Humidity: 85%   Direction: 260°W
Pressure: 29.99"   Gusts: NA
Location:  41.246°N, 77.0167°W
Report Text: KIPT 270811Z AUTO 26005KT 10SM FEW029 SCT040 OVC050 00/M02 A2999 RMK AO2 T00001022
Loading
Personal Weather Stations






























Interactive Weather Map New forecast layout! Learn more

10-Day Weather Forecast

Advertisements
Track Severe Weather on mobile